createdAt,value
2023-07-24T00:03:47.066Z,100.00
2023-07-24T00:07:48.567Z,100.00
2023-07-24T00:11:50.061Z,100.00
2023-07-24T00:15:51.675Z,100.00
2023-07-24T00:19:53.202Z,100.00
2023-07-24T00:23:54.709Z,100.00
2023-07-24T00:27:56.225Z,100.00
2023-07-24T00:31:57.738Z,100.00
2023-07-24T00:35:59.269Z,100.00
2023-07-24T00:40:00.754Z,100.00
2023-07-24T00:44:02.255Z,100.00
2023-07-24T00:48:03.943Z,100.00
2023-07-24T00:52:05.983Z,100.00
2023-07-24T00:56:07.945Z,100.00
2023-07-24T01:00:10.168Z,100.00
2023-07-24T01:04:12.005Z,100.00
2023-07-24T01:08:13.534Z,100.00
2023-07-24T01:12:23.768Z,100.00
2023-07-24T01:16:31.513Z,100.00
2023-07-24T01:20:37.284Z,100.00
2023-07-24T01:25:02.140Z,100.00
2023-07-24T01:29:03.623Z,100.00
2023-07-24T01:33:05.204Z,100.00
2023-07-24T01:37:07.085Z,100.00
2023-07-24T01:41:08.729Z,100.00
2023-07-24T01:45:13.158Z,100.00
2023-07-24T01:49:14.673Z,100.00
2023-07-24T01:53:19.321Z,100.00
2023-07-24T01:57:20.907Z,100.00
2023-07-24T02:01:22.462Z,100.00
2023-07-24T02:05:24.133Z,100.00
2023-07-24T02:09:25.717Z,100.00
2023-07-24T02:13:27.230Z,100.00
2023-07-24T02:17:28.806Z,100.00
2023-07-24T02:21:30.983Z,100.00
2023-07-24T02:25:32.493Z,100.00
2023-07-24T02:29:34.536Z,100.00
2023-07-24T02:33:36.019Z,100.00
2023-07-24T02:37:37.516Z,100.00
2023-07-24T02:41:39.061Z,100.00
2023-07-24T02:45:40.575Z,100.00
2023-07-24T02:49:42.123Z,100.00
2023-07-24T02:53:43.617Z,100.00
2023-07-24T02:57:45.197Z,100.00
2023-07-24T03:01:46.705Z,100.00
2023-07-24T03:05:48.197Z,100.00
2023-07-24T03:09:51.886Z,100.00
2023-07-24T03:13:53.374Z,100.00
2023-07-24T03:17:54.966Z,100.00
2023-07-24T03:21:56.531Z,100.00
2023-07-24T03:25:58.255Z,100.00
2023-07-24T03:29:59.695Z,100.00
2023-07-24T03:34:01.314Z,100.00
2023-07-24T03:38:02.808Z,100.00
2023-07-24T03:42:04.657Z,100.00
2023-07-24T03:46:06.134Z,100.00
2023-07-24T03:50:07.943Z,100.00
2023-07-24T03:54:09.408Z,100.00
2023-07-24T03:58:10.854Z,100.00
2023-07-24T04:02:12.372Z,100.00
2023-07-24T04:06:13.861Z,100.00
2023-07-24T04:10:15.399Z,100.00
2023-07-24T04:14:16.848Z,100.00
2023-07-24T04:18:18.341Z,100.00
2023-07-24T04:22:19.855Z,98.01
2023-07-24T04:26:21.452Z,88.23
2023-07-24T04:30:22.959Z,84.53
2023-07-24T04:34:24.446Z,78.93
2023-07-24T04:38:26.103Z,71.57
2023-07-24T04:42:27.688Z,74.53
2023-07-24T04:46:29.589Z,70.01
2023-07-24T04:50:31.407Z,61.43
2023-07-24T04:54:32.855Z,59.46
2023-07-24T04:58:34.400Z,59.60
2023-07-24T05:02:35.858Z,61.75
2023-07-24T05:06:39.373Z,53.02
2023-07-24T05:10:40.990Z,51.24
2023-07-24T05:14:42.497Z,56.41
2023-07-24T05:18:44.023Z,61.05
2023-07-24T05:22:45.689Z,71.44
2023-07-24T05:26:47.340Z,69.58
2023-07-24T05:30:48.796Z,73.99
2023-07-24T05:34:50.268Z,81.90
2023-07-24T05:38:53.846Z,89.39
2023-07-24T05:42:55.368Z,91.26
2023-07-24T05:46:56.832Z,91.04
2023-07-24T05:50:58.277Z,93.34
2023-07-24T05:54:59.748Z,96.93
2023-07-24T05:59:01.221Z,99.35
2023-07-24T06:03:04.486Z,99.66
2023-07-24T06:07:07.712Z,97.95
2023-07-24T06:11:09.246Z,93.21
2023-07-24T06:15:10.927Z,95.43
2023-07-24T06:19:12.356Z,89.89
2023-07-24T06:23:13.805Z,89.43
2023-07-24T06:27:15.844Z,83.04
2023-07-24T06:31:19.062Z,81.45
2023-07-24T06:35:20.682Z,85.21
2023-07-24T06:39:22.158Z,80.50
2023-07-24T06:43:23.695Z,82.80
2023-07-24T06:47:25.892Z,79.79
2023-07-24T06:51:27.463Z,77.37
2023-07-24T06:55:28.967Z,76.10
2023-07-24T06:59:30.512Z,73.03
2023-07-24T07:03:32.096Z,68.32
2023-07-24T07:07:33.628Z,71.17
2023-07-24T07:11:35.135Z,70.83
2023-07-24T07:15:37.582Z,71.19
2023-07-24T07:19:39.146Z,72.38
2023-07-24T07:23:40.659Z,77.70
2023-07-24T07:27:42.334Z,78.05
2023-07-24T07:31:43.819Z,80.35
2023-07-24T07:35:45.300Z,80.81
2023-07-24T07:39:47.108Z,75.62
2023-07-24T07:43:48.589Z,76.63
2023-07-24T07:47:50.334Z,72.64
2023-07-24T07:51:51.809Z,71.76
2023-07-24T07:56:00.866Z,65.19
2023-07-24T08:00:09.134Z,68.85
2023-07-24T08:04:10.593Z,65.31
2023-07-24T08:08:12.085Z,68.53
2023-07-24T08:12:13.528Z,59.69
2023-07-24T08:16:21.910Z,59.63
2023-07-24T08:20:23.484Z,67.34
2023-07-24T08:24:25.134Z,66.07
2023-07-24T08:28:26.723Z,63.20
2023-07-24T08:32:28.329Z,59.18
2023-07-24T08:36:30.494Z,57.89
2023-07-24T08:40:32.197Z,61.02
2023-07-24T08:44:33.765Z,61.92
2023-07-24T08:48:42.835Z,61.81
2023-07-24T08:52:45.963Z,62.54
2023-07-24T08:56:51.209Z,60.20
2023-07-24T09:00:52.886Z,57.98
2023-07-24T09:04:54.529Z,60.27
2023-07-24T09:08:56.224Z,58.30
2023-07-24T09:12:57.967Z,61.47
2023-07-24T09:17:06.745Z,59.00
2023-07-24T09:21:08.692Z,59.02
2023-07-24T09:25:10.634Z,60.20
2023-07-24T09:29:12.336Z,57.66
2023-07-24T09:33:15.131Z,57.26
2023-07-24T09:37:31.605Z,57.89
2023-07-24T09:41:33.294Z,58.41
2023-07-24T09:45:36.475Z,57.07
2023-07-24T09:49:38.562Z,58.22
2023-07-24T09:53:47.947Z,58.85
2023-07-24T09:57:53.162Z,58.85
2023-07-24T10:01:55.412Z,57.99
2023-07-24T10:05:56.992Z,61.23
2023-07-24T10:09:59.478Z,63.35
2023-07-24T10:14:02.245Z,59.33
2023-07-24T10:18:06.111Z,61.56
2023-07-24T10:22:08.288Z,61.66
2023-07-24T10:26:10.425Z,71.21
2023-07-24T10:30:27.515Z,72.11
2023-07-24T10:34:40.026Z,72.37
2023-07-24T10:38:42.958Z,79.96
2023-07-24T10:42:44.430Z,80.56
2023-07-24T10:46:45.941Z,82.71
2023-07-24T10:50:54.338Z,85.44
2023-07-24T10:54:56.744Z,86.82
2023-07-24T10:59:03.665Z,85.44
2023-07-24T11:03:05.258Z,82.57
2023-07-24T11:07:06.767Z,78.48
2023-07-24T11:11:09.207Z,74.11
2023-07-24T11:15:11.539Z,71.83
2023-07-24T11:19:12.990Z,71.94
2023-07-24T11:23:15.137Z,70.51
2023-07-24T11:27:18.234Z,71.35
2023-07-24T11:31:22.994Z,71.22
2023-07-24T11:35:26.574Z,72.62
2023-07-24T11:39:28.134Z,74.06
2023-07-24T11:43:29.633Z,74.14
2023-07-24T11:47:31.260Z,79.72
2023-07-24T11:51:34.543Z,71.25
2023-07-24T11:55:36.535Z,69.57
2023-07-24T11:59:39.647Z,69.59
2023-07-24T12:03:42.310Z,68.21
2023-07-24T12:07:45.128Z,65.73
2023-07-24T12:11:47.550Z,63.89
2023-07-24T12:15:49.556Z,61.47
2023-07-24T12:19:51.123Z,60.94
2023-07-24T12:23:52.577Z,57.82
2023-07-24T12:27:54.197Z,57.74
2023-07-24T12:31:55.776Z,57.69
2023-07-24T12:35:57.241Z,59.13
2023-07-24T12:39:58.851Z,55.67
2023-07-24T12:44:01.025Z,50.99
2023-07-24T12:48:02.901Z,54.58
2023-07-24T12:52:05.239Z,51.80
2023-07-24T12:56:06.838Z,54.38
2023-07-24T13:00:10.050Z,51.77
2023-07-24T13:04:11.908Z,49.49
2023-07-24T13:08:13.468Z,53.89
2023-07-24T13:12:15.055Z,55.78
2023-07-24T13:16:17.412Z,57.43
2023-07-24T13:20:19.017Z,56.58
2023-07-24T13:24:20.585Z,60.20
2023-07-24T13:28:22.207Z,60.71
2023-07-24T13:32:23.903Z,62.13
2023-07-24T13:36:25.362Z,65.45
2023-07-24T13:40:27.350Z,68.57
2023-07-24T13:44:28.880Z,71.56
2023-07-24T13:48:31.486Z,69.54
2023-07-24T13:52:33.029Z,76.00
2023-07-24T13:56:36.736Z,74.50
2023-07-24T14:00:38.314Z,80.06
2023-07-24T14:04:39.875Z,79.78
2023-07-24T14:08:41.368Z,87.06
2023-07-24T14:12:42.905Z,86.74
2023-07-24T14:16:44.471Z,83.63
2023-07-24T14:20:46.520Z,79.59
2023-07-24T14:24:48.100Z,67.76
2023-07-24T14:28:49.657Z,61.80
2023-07-24T14:32:51.759Z,57.19
2023-07-24T14:36:53.932Z,60.21
2023-07-24T14:40:55.443Z,60.32
2023-07-24T14:45:02.607Z,61.40
2023-07-24T14:49:04.479Z,56.28
2023-07-24T14:53:05.953Z,54.22
2023-07-24T14:57:19.061Z,55.85
2023-07-24T15:01:24.871Z,56.76
2023-07-24T15:05:26.385Z,53.31
2023-07-24T15:09:27.845Z,53.26
2023-07-24T15:13:29.415Z,62.95
2023-07-24T15:17:31.359Z,63.08
2023-07-24T15:21:33.173Z,65.78
2023-07-24T15:25:34.978Z,62.02
2023-07-24T15:29:39.714Z,57.02
2023-07-24T15:33:41.316Z,55.69
2023-07-24T15:37:44.718Z,52.83
2023-07-24T15:41:46.261Z,52.02
2023-07-24T15:45:47.825Z,53.38
2023-07-24T15:49:49.561Z,53.88
2023-07-24T15:53:51.414Z,53.18
2023-07-24T15:57:52.939Z,55.30
2023-07-24T16:01:55.374Z,60.50
2023-07-24T16:05:56.841Z,64.72
2023-07-24T16:09:58.288Z,62.77
2023-07-24T16:13:59.771Z,57.67
2023-07-24T16:22:05.792Z,57.08
2023-07-24T16:26:07.259Z,58.81
2023-07-24T16:30:11.902Z,55.60
2023-07-24T16:34:17.643Z,52.19
2023-07-24T16:38:19.313Z,51.93
2023-07-24T16:42:20.845Z,54.14
2023-07-24T16:46:26.375Z,56.45
2023-07-24T16:50:30.444Z,54.69
2023-07-24T16:54:32.022Z,56.70
2023-07-24T16:58:33.530Z,56.87
2023-07-24T17:02:36.725Z,59.33
2023-07-24T17:06:38.636Z,58.57
2023-07-24T17:10:43.761Z,60.17
2023-07-24T17:14:45.224Z,57.03
2023-07-24T17:18:46.918Z,67.43
2023-07-24T17:22:48.473Z,70.35
2023-07-24T17:26:49.958Z,76.61
2023-07-24T17:30:52.195Z,75.10
2023-07-24T17:34:53.853Z,72.72
2023-07-24T17:38:56.360Z,74.72
2023-07-24T17:42:57.940Z,72.67
2023-07-24T17:46:59.439Z,76.56
2023-07-24T17:51:01.284Z,80.47
2023-07-24T17:55:03.780Z,94.50
2023-07-24T17:59:05.251Z,100.00
2023-07-24T18:03:06.910Z,100.00
2023-07-24T18:07:08.513Z,100.00
2023-07-24T18:11:10.054Z,100.00
2023-07-24T18:15:11.680Z,100.00
2023-07-24T18:19:13.274Z,100.00
2023-07-24T18:23:14.783Z,100.00
2023-07-24T18:27:16.363Z,100.00
2023-07-24T18:31:19.836Z,100.00
2023-07-24T18:35:21.590Z,100.00
2023-07-24T18:39:23.132Z,100.00
2023-07-24T18:43:24.706Z,100.00
2023-07-24T18:47:26.205Z,100.00
2023-07-24T18:51:27.813Z,100.00
2023-07-24T18:55:29.583Z,100.00
2023-07-24T18:59:31.154Z,100.00
2023-07-24T19:03:32.683Z,100.00
2023-07-24T19:07:34.153Z,100.00
2023-07-24T19:11:35.797Z,100.00
2023-07-24T19:15:37.403Z,100.00
2023-07-24T19:19:39.316Z,100.00
2023-07-24T19:23:40.812Z,100.00
2023-07-24T19:27:42.365Z,100.00
2023-07-24T19:31:44.162Z,100.00
2023-07-24T19:35:45.766Z,100.00
2023-07-24T19:39:47.281Z,100.00
2023-07-24T19:43:48.781Z,100.00
2023-07-24T19:47:50.424Z,100.00
2023-07-24T19:51:52.129Z,100.00
2023-07-24T19:55:54.283Z,100.00
2023-07-24T19:59:55.762Z,100.00
2023-07-24T20:03:57.257Z,100.00
2023-07-24T20:07:58.738Z,100.00
2023-07-24T20:12:00.341Z,100.00
2023-07-24T20:16:02.321Z,100.00
2023-07-24T20:20:04.296Z,100.00
2023-07-24T20:24:10.751Z,100.00
2023-07-24T20:28:13.215Z,100.00
2023-07-24T20:32:15.056Z,100.00
2023-07-24T20:36:16.654Z,100.00
2023-07-24T20:40:18.357Z,100.00
2023-07-24T20:44:19.821Z,100.00
2023-07-24T20:48:25.664Z,100.00
2023-07-24T20:52:27.352Z,100.00
2023-07-24T20:56:29.183Z,100.00
2023-07-24T21:00:30.658Z,100.00
2023-07-24T21:04:32.788Z,100.00
2023-07-24T21:08:34.272Z,100.00
2023-07-24T21:12:36.287Z,100.00
2023-07-24T21:16:39.125Z,100.00
2023-07-24T21:20:42.360Z,100.00
2023-07-24T21:24:43.912Z,100.00
2023-07-24T21:28:45.408Z,100.00
2023-07-24T21:32:47.273Z,100.00
2023-07-24T21:36:49.027Z,100.00
2023-07-24T21:40:51.182Z,100.00
2023-07-24T21:44:52.954Z,100.00
2023-07-24T21:48:54.488Z,100.00
2023-07-24T21:52:56.053Z,100.00
2023-07-24T21:56:57.521Z,100.00
2023-07-24T22:00:59.107Z,100.00
2023-07-24T22:05:00.688Z,100.00
2023-07-24T22:09:02.191Z,100.00
2023-07-24T22:13:03.732Z,100.00
2023-07-24T22:17:06.034Z,100.00
2023-07-24T22:21:07.578Z,100.00
2023-07-24T22:25:09.611Z,100.00
2023-07-24T22:29:11.115Z,100.00
2023-07-24T22:33:13.063Z,100.00
2023-07-24T22:37:14.574Z,100.00
2023-07-24T22:41:16.065Z,100.00
2023-07-24T22:45:17.716Z,100.00
2023-07-24T22:49:19.233Z,100.00
2023-07-24T22:53:22.078Z,100.00
2023-07-24T22:57:24.068Z,100.00
2023-07-24T23:01:28.805Z,100.00
2023-07-24T23:05:33.784Z,100.00
2023-07-24T23:09:35.397Z,100.00
2023-07-24T23:13:37.038Z,100.00
2023-07-24T23:17:38.664Z,100.00
2023-07-24T23:21:40.170Z,100.00
2023-07-24T23:25:41.635Z,100.00
2023-07-24T23:29:43.106Z,100.00
2023-07-24T23:33:44.799Z,100.00
2023-07-24T23:37:46.393Z,100.00
2023-07-24T23:41:47.954Z,100.00
2023-07-24T23:45:49.456Z,100.00
2023-07-24T23:49:50.958Z,100.00
2023-07-24T23:53:52.453Z,100.00
2023-07-24T23:57:53.894Z,100.00
